Time;durP1;ratioP1;P1;durP2;ratioP2;P2;SDS_P1;SDS_P2;PMS_P1;PMS_P2;Temp;Humidity;BMP_temperature;BMP_pressure;BME280_temperature;BME280_humidity;BME280_pressure;Samples;Min_cycle;Max_cycle;Signal;HPM_P1;HPM_P2
2021/03/18 00:00:44;;;;;;;9.83;6.20;;;0.60;99.90;;;;;;5089943;28;20712;-76
2021/03/18 00:03:15;;;;;;;11.83;6.87;;;0.60;99.90;;;;;;5089416;28;20338;-76
2021/03/18 00:05:42;;;;;;;11.50;6.47;;;0.60;99.90;;;;;;5089938;28;20149;-76
2021/03/18 00:08:08;;;;;;;9.20;6.13;;;0.50;99.90;;;;;;5071344;28;20029;-76
2021/03/18 00:10:34;;;;;;;10.33;6.60;;;0.50;99.90;;;;;;5089345;28;20483;-76
2021/03/18 00:12:59;;;;;;;11.13;6.90;;;0.50;99.90;;;;;;5089759;28;20016;-74
2021/03/18 00:15:26;;;;;;;10.53;6.90;;;0.50;99.90;;;;;;5089296;28;20074;-75
2021/03/18 00:17:52;;;;;;;11.07;6.90;;;0.40;99.90;;;;;;5071507;28;20021;-74
2021/03/18 00:20:19;;;;;;;10.73;6.47;;;0.40;99.90;;;;;;5089424;28;20092;-74
2021/03/18 00:22:46;;;;;;;10.20;6.53;;;0.50;99.90;;;;;;5089610;28;20069;-75
2021/03/18 00:25:14;;;;;;;9.30;6.80;;;0.50;99.90;;;;;;5089130;28;20392;-75
2021/03/18 00:27:41;;;;;;;10.43;6.80;;;0.40;99.90;;;;;;5071459;28;20456;-75
2021/03/18 00:30:08;;;;;;;10.23;6.90;;;0.40;99.90;;;;;;5089497;28;20013;-75
2021/03/18 00:32:34;;;;;;;11.63;6.73;;;0.40;99.90;;;;;;5092071;28;20548;-75
2021/03/18 00:35:01;;;;;;;11.27;6.77;;;0.40;99.90;;;;;;5093233;28;20024;-75
2021/03/18 00:37:26;;;;;;;11.20;6.77;;;0.40;99.90;;;;;;5074606;28;20032;-75
2021/03/18 00:39:56;;;;;;;11.23;6.90;;;0.40;99.90;;;;;;5093148;28;20043;-75
2021/03/18 00:42:22;;;;;;;11.60;7.30;;;0.40;99.90;;;;;;5093132;28;20180;-75
2021/03/18 00:44:49;;;;;;;11.77;6.80;;;0.50;99.90;;;;;;5092589;28;20020;-75
2021/03/18 00:47:15;;;;;;;10.03;6.77;;;0.40;99.90;;;;;;5092695;28;20055;-75
2021/03/18 00:49:41;;;;;;;12.13;7.30;;;0.40;99.90;;;;;;5092316;28;20024;-75
2021/03/18 00:52:07;;;;;;;12.67;7.77;;;0.40;99.90;;;;;;5092701;28;20035;-76
2021/03/18 00:54:32;;;;;;;12.50;7.23;;;0.40;99.90;;;;;;5092510;28;20145;-75
2021/03/18 00:56:58;;;;;;;13.33;8.33;;;0.40;99.90;;;;;;5092802;28;20028;-75
2021/03/18 00:59:23;;;;;;;9.27;6.63;;;0.40;99.90;;;;;;5092435;28;20031;-75
2021/03/18 01:01:49;;;;;;;12.53;7.80;;;0.40;99.90;;;;;;5092674;28;20020;-75
2021/03/18 01:04:15;;;;;;;11.27;7.70;;;0.40;99.90;;;;;;5092233;28;20202;-75
2021/03/18 01:06:40;;;;;;;12.83;7.17;;;0.40;99.90;;;;;;5092481;28;20020;-75
2021/03/18 01:09:07;;;;;;;11.33;7.40;;;0.30;99.90;;;;;;5074393;28;20020;-75
2021/03/18 01:11:36;;;;;;;16.00;7.87;;;0.30;99.90;;;;;;5092440;28;20058;-75
2021/03/18 01:14:13;;;;;;;12.20;7.73;;;0.30;99.90;;;;;;5092445;28;20030;-75
2021/03/18 01:16:49;;;;;;;15.23;8.13;;;0.30;99.90;;;;;;5092175;28;20070;-75
2021/03/18 01:19:17;;;;;;;13.00;8.00;;;0.30;99.90;;;;;;5091928;28;20012;-75
2021/03/18 01:21:47;;;;;;;14.10;7.67;;;0.30;99.90;;;;;;5099526;28;20389;-75
2021/03/18 01:24:13;;;;;;;13.37;7.80;;;0.30;99.90;;;;;;5075840;28;20017;-75
2021/03/18 01:26:41;;;;;;;12.17;8.57;;;0.20;99.90;;;;;;5073856;28;20046;-75
2021/03/18 01:29:07;;;;;;;12.93;7.80;;;0.30;99.90;;;;;;5073805;28;20462;-75
2021/03/18 01:31:33;;;;;;;10.50;7.47;;;0.30;99.90;;;;;;5090631;28;20024;-75
2021/03/18 01:33:59;;;;;;;12.53;8.10;;;0.20;99.90;;;;;;5073039;28;20383;-75
2021/03/18 01:36:26;;;;;;;12.60;8.03;;;0.20;99.90;;;;;;5091911;28;20024;-75
2021/03/18 01:38:52;;;;;;;12.90;8.40;;;0.20;99.90;;;;;;5092209;28;20469;-75
2021/03/18 01:41:20;;;;;;;12.93;8.23;;;0.20;99.90;;;;;;5090310;28;20021;-75
2021/03/18 01:43:46;;;;;;;15.50;8.67;;;0.10;99.90;;;;;;5091346;28;20019;-75
2021/03/18 01:46:12;;;;;;;14.07;8.33;;;0.10;99.90;;;;;;5091726;28;20776;-75
2021/03/18 01:48:39;;;;;;;14.63;8.30;;;0.10;99.90;;;;;;5091962;28;20085;-75
2021/03/18 01:51:05;;;;;;;15.43;8.70;;;0.10;99.90;;;;;;5091715;28;20103;-75
2021/03/18 01:53:31;;;;;;;13.07;8.20;;;0.10;99.90;;;;;;5073613;28;20074;-75
2021/03/18 01:55:58;;;;;;;14.10;8.40;;;0.10;99.90;;;;;;5091685;28;20060;-75
2021/03/18 01:58:25;;;;;;;11.70;8.00;;;0.10;99.90;;;;;;5091835;28;20033;-75
2021/03/18 02:00:54;;;;;;;14.57;8.53;;;0.10;99.90;;;;;;5091579;28;20028;-75
2021/03/18 02:03:20;;;;;;;12.50;8.47;;;0.10;99.90;;;;;;5091942;28;20035;-75
2021/03/18 02:05:47;;;;;;;14.80;8.70;;;0.10;99.90;;;;;;5091281;28;20032;-75
2021/03/18 02:08:17;;;;;;;13.63;8.57;;;0.10;99.90;;;;;;5073215;28;20043;-75
2021/03/18 02:10:43;;;;;;;14.77;8.80;;;0.10;99.90;;;;;;5073228;28;20039;-75
2021/03/18 02:13:10;;;;;;;15.57;9.20;;;0.10;99.90;;;;;;5091273;28;20024;-75
2021/03/18 02:15:43;;;;;;;16.37;9.07;;;0.00;99.90;;;;;;5091486;28;20058;-75
2021/03/18 02:18:17;;;;;;;16.57;9.57;;;0.00;99.90;;;;;;5077265;28;20119;-75
2021/03/18 02:20:58;;;;;;;14.27;8.93;;;0.00;99.90;;;;;;5091212;28;20077;-75
2021/03/18 02:24:01;;;;;;;15.83;8.63;;;0.00;99.90;;;;;;5078248;28;20300;-75
2021/03/18 02:26:36;;;;;;;13.03;8.63;;;0.00;99.90;;;;;;5072708;28;20024;-75
2021/03/18 02:29:35;;;;;;;15.02;9.23;;;0.00;99.90;;;;;;5072771;28;20024;-75
2021/03/18 02:32:23;;;;;;;16.27;8.50;;;0.00;99.90;;;;;;5079073;28;20050;-75
2021/03/18 02:35:07;;;;;;;17.90;9.60;;;0.00;99.90;;;;;;5091073;28;20036;-75
2021/03/18 02:37:37;;;;;;;16.73;9.77;;;0.00;99.90;;;;;;5072647;28;20028;-75
2021/03/18 02:40:13;;;;;;;17.90;9.50;;;0.00;99.90;;;;;;5089726;28;20020;-75
2021/03/18 02:42:41;;;;;;;15.27;9.37;;;0.00;99.90;;;;;;5090892;28;20032;-75
2021/03/18 02:45:09;;;;;;;14.73;9.27;;;0.00;99.90;;;;;;5090644;28;20008;-75
2021/03/18 02:47:36;;;;;;;16.50;9.57;;;0.00;99.90;;;;;;5090482;28;20150;-75
2021/03/18 02:50:07;;;;;;;16.17;9.90;;;-0.10;99.90;;;;;;5072350;28;20063;-75
2021/03/18 02:52:34;;;;;;;17.37;10.27;;;0.00;99.90;;;;;;5090706;28;20028;-75
2021/03/18 02:55:03;;;;;;;21.30;9.87;;;-0.10;99.90;;;;;;5089433;28;20349;-75
2021/03/18 02:57:32;;;;;;;19.53;10.37;;;-0.10;99.90;;;;;;5083314;28;20028;-75
2021/03/18 03:00:00;;;;;;;18.50;10.63;;;-0.10;99.90;;;;;;5083741;28;20043;-75
2021/03/18 03:02:29;;;;;;;19.67;10.87;;;-0.10;99.90;;;;;;5090611;28;20785;-75
2021/03/18 03:04:57;;;;;;;19.37;10.07;;;-0.20;99.90;;;;;;5090487;28;20085;-75
2021/03/18 03:07:25;;;;;;;17.80;10.07;;;-0.20;99.90;;;;;;5090377;28;20020;-75
2021/03/18 03:09:53;;;;;;;18.17;10.43;;;-0.20;99.90;;;;;;5090468;28;20020;-75
2021/03/18 03:12:22;;;;;;;23.60;11.77;;;-0.20;99.90;;;;;;5089818;28;20051;-75
2021/03/18 03:14:50;;;;;;;22.63;11.93;;;-0.30;99.90;;;;;;5090062;28;20477;-75
2021/03/18 03:17:20;;;;;;;20.73;11.47;;;-0.30;99.90;;;;;;5090196;28;20032;-75
2021/03/18 03:19:46;;;;;;;18.73;10.77;;;-0.30;99.90;;;;;;5086015;28;20020;-75
2021/03/18 03:22:12;;;;;;;18.50;11.30;;;-0.30;99.90;;;;;;5071882;28;20380;-75
2021/03/18 03:24:40;;;;;;;21.27;11.60;;;-0.40;99.90;;;;;;5090441;28;20020;-75
2021/03/18 03:27:07;;;;;;;26.07;13.10;;;-0.40;99.90;;;;;;5090103;28;20043;-75
2021/03/18 03:29:34;;;;;;;22.90;12.23;;;-0.40;99.90;;;;;;5090366;28;20035;-75
2021/03/18 03:32:02;;;;;;;24.27;13.50;;;-0.40;99.90;;;;;;5090149;28;20036;-75
2021/03/18 03:34:27;;;;;;;22.53;11.83;;;-0.40;99.90;;;;;;5089640;28;20023;-75
2021/03/18 03:36:53;;;;;;;20.67;11.60;;;-0.40;99.90;;;;;;5090177;28;20036;-77
2021/03/18 03:39:18;;;;;;;23.43;12.47;;;-0.40;99.90;;;;;;5090109;28;20020;-77
2021/03/18 03:41:45;;;;;;;23.03;11.97;;;-0.40;99.90;;;;;;5090119;28;20093;-77
2021/03/18 03:44:12;;;;;;;23.13;12.33;;;-0.40;99.90;;;;;;5090274;28;20306;-78
2021/03/18 03:46:38;;;;;;;18.67;11.77;;;-0.30;99.90;;;;;;5071492;28;20048;-77
2021/03/18 03:49:04;;;;;;;21.03;12.23;;;-0.40;99.90;;;;;;5090110;28;20032;-77
2021/03/18 03:51:56;;;;;;;22.87;12.87;;;-0.40;99.90;;;;;;5089985;28;20032;-77
2021/03/18 03:54:23;;;;;;;24.07;12.47;;;-0.40;99.90;;;;;;5078936;28;20020;-77
2021/03/18 03:57:01;;;;;;;18.80;12.50;;;-0.40;99.90;;;;;;5089839;28;20165;-77
2021/03/18 03:59:30;;;;;;;21.23;12.70;;;-0.50;99.90;;;;;;5089710;28;20379;-78
2021/03/18 04:01:57;;;;;;;23.03;12.73;;;-0.50;99.90;;;;;;5089676;28;20035;-77
2021/03/18 04:04:34;;;;;;;25.20;13.60;;;-0.50;99.90;;;;;;5090105;28;20585;-77
2021/03/18 04:07:21;;;;;;;22.73;12.90;;;-0.60;99.90;;;;;;5075276;28;20024;-77
2021/03/18 04:09:47;;;;;;;25.37;12.70;;;-0.60;99.90;;;;;;5093775;28;20020;-77
2021/03/18 04:12:16;;;;;;;26.17;13.53;;;-0.60;99.90;;;;;;5093831;28;20393;-77
2021/03/18 04:14:52;;;;;;;24.57;13.90;;;-0.60;99.90;;;;;;5093724;28;20048;-77
2021/03/18 04:17:18;;;;;;;22.70;13.20;;;-0.70;99.90;;;;;;5093445;28;20455;-78
2021/03/18 04:19:49;;;;;;;23.20;12.63;;;-0.70;99.90;;;;;;5075291;28;20028;-78
2021/03/18 04:22:16;;;;;;;27.60;14.60;;;-0.70;99.90;;;;;;5093687;28;20037;-78
2021/03/18 04:24:43;;;;;;;28.30;14.70;;;-0.70;99.90;;;;;;5093734;28;20012;-77
2021/03/18 04:27:09;;;;;;;30.17;14.67;;;-0.70;99.90;;;;;;5075000;28;20328;-77
2021/03/18 04:29:38;;;;;;;28.60;14.87;;;-0.70;99.90;;;;;;5075229;28;20119;-77
2021/03/18 04:32:03;;;;;;;23.80;14.10;;;-0.70;99.90;;;;;;5093446;28;20450;-77
2021/03/18 04:34:33;;;;;;;29.33;13.70;;;-0.60;99.90;;;;;;5093450;28;20040;-77
2021/03/18 04:37:00;;;;;;;27.63;14.27;;;-0.60;99.90;;;;;;5074884;28;20035;-77
2021/03/18 04:39:25;;;;;;;23.90;13.63;;;-0.60;99.90;;;;;;5074676;28;20492;-77
2021/03/18 04:41:52;;;;;;;25.43;14.30;;;-0.50;99.90;;;;;;5092978;28;20023;-77
2021/03/18 04:44:18;;;;;;;26.23;14.53;;;-0.50;99.90;;;;;;5093079;28;20035;-78
2021/03/18 04:46:46;;;;;;;25.87;13.57;;;-0.50;99.90;;;;;;5093177;28;20185;-77
2021/03/18 04:49:15;;;;;;;24.27;14.13;;;-0.50;99.90;;;;;;5093173;28;20051;-77
2021/03/18 04:51:43;;;;;;;26.43;15.13;;;-0.50;99.90;;;;;;5092866;28;20141;-77
2021/03/18 04:54:09;;;;;;;23.73;14.13;;;-0.50;99.90;;;;;;5093073;28;20027;-77
2021/03/18 04:56:36;;;;;;;23.47;14.50;;;-0.40;99.90;;;;;;5092779;28;20024;-77
2021/03/18 04:59:02;;;;;;;24.93;14.63;;;-0.40;99.90;;;;;;5075012;28;20069;-77
2021/03/18 05:01:30;;;;;;;25.27;13.87;;;-0.40;99.90;;;;;;5092269;28;20032;-78
2021/03/18 05:03:56;;;;;;;24.03;14.53;;;-0.40;99.90;;;;;;5091171;28;20032;-78
2021/03/18 05:06:25;;;;;;;26.50;14.63;;;-0.40;99.90;;;;;;5092073;28;20027;-77
2021/03/18 05:08:51;;;;;;;24.97;15.13;;;-0.40;99.90;;;;;;5091983;28;20053;-77
2021/03/18 05:11:17;;;;;;;31.43;15.40;;;-0.40;99.90;;;;;;5073960;28;20035;-77
2021/03/18 05:13:44;;;;;;;27.60;15.57;;;-0.40;99.90;;;;;;5073679;28;20032;-78
2021/03/18 05:16:10;;;;;;;27.53;15.80;;;-0.50;99.90;;;;;;5069626;28;20143;-77
2021/03/18 05:18:36;;;;;;;26.23;14.80;;;-0.50;99.90;;;;;;5084289;28;20051;-77
2021/03/18 05:21:04;;;;;;;26.53;15.60;;;-0.40;99.90;;;;;;5091338;28;20024;-77
2021/03/18 05:23:31;;;;;;;31.53;16.07;;;-0.40;99.90;;;;;;5091546;28;20098;-77
2021/03/18 05:25:57;;;;;;;29.57;16.07;;;-0.40;99.90;;;;;;5089094;28;20024;-77
2021/03/18 05:28:22;;;;;;;28.70;14.83;;;-0.40;99.90;;;;;;5072955;28;20020;-77
2021/03/18 05:30:50;;;;;;;29.13;16.50;;;-0.40;99.90;;;;;;5090656;28;20464;-77
2021/03/18 05:33:16;;;;;;;29.87;16.10;;;-0.40;99.90;;;;;;5089033;28;20035;-77
2021/03/18 05:35:44;;;;;;;26.30;15.53;;;-0.40;99.90;;;;;;5088548;28;20485;-77
2021/03/18 05:38:11;;;;;;;27.73;15.37;;;-0.40;99.90;;;;;;5090760;28;21135;-78
2021/03/18 05:40:39;;;;;;;31.97;17.00;;;-0.40;99.90;;;;;;5072263;28;20127;-77
2021/03/18 05:43:05;;;;;;;28.67;16.20;;;-0.40;99.90;;;;;;5090184;28;20039;-78
2021/03/18 05:45:32;;;;;;;28.93;16.43;;;-0.40;99.90;;;;;;5071847;28;20053;-77
2021/03/18 05:47:58;;;;;;;28.17;16.30;;;-0.40;99.90;;;;;;5090176;28;20040;-77
2021/03/18 05:50:24;;;;;;;26.77;15.70;;;-0.40;99.90;;;;;;5071407;28;20020;-77
2021/03/18 05:52:51;;;;;;;32.60;17.80;;;-0.40;99.90;;;;;;5090491;28;20024;-77
2021/03/18 05:55:20;;;;;;;28.53;15.83;;;-0.40;99.90;;;;;;5081214;28;20020;-77
2021/03/18 05:57:47;;;;;;;29.77;16.53;;;-0.40;99.90;;;;;;5071492;28;20076;-77
2021/03/18 06:00:14;;;;;;;29.53;17.17;;;-0.40;99.90;;;;;;5088519;28;20056;-77
2021/03/18 06:02:40;;;;;;;31.93;17.07;;;-0.40;99.90;;;;;;5090019;28;20466;-77
2021/03/18 06:05:14;;;;;;;31.60;17.10;;;-0.30;99.90;;;;;;5088678;28;20146;-77
2021/03/18 06:07:42;;;;;;;27.23;16.57;;;-0.30;99.90;;;;;;5090240;28;20380;-78
2021/03/18 06:10:10;;;;;;;27.80;16.00;;;-0.30;99.90;;;;;;5090680;28;20150;-77
2021/03/18 06:12:37;;;;;;;28.93;17.03;;;-0.30;99.90;;;;;;5072095;28;20480;-77
2021/03/18 06:15:07;;;;;;;32.43;17.07;;;-0.30;99.90;;;;;;5090403;28;20469;-77
2021/03/18 06:17:33;;;;;;;53.13;27.83;;;-0.20;99.90;;;;;;5084458;28;20495;-75
2021/03/18 06:20:00;;;;;;;30.47;16.57;;;-0.10;99.90;;;;;;5091051;28;20028;-75
2021/03/18 06:22:44;;;;;;;26.33;16.73;;;-0.10;99.90;;;;;;5091155;28;20028;-75
2021/03/18 06:25:32;;;;;;;29.90;16.83;;;-0.10;99.90;;;;;;5091141;28;20020;-75
2021/03/18 06:28:18;;;;;;;32.07;17.47;;;-0.10;99.90;;;;;;5091106;28;20047;-75
2021/03/18 06:30:57;;;;;;;29.10;15.97;;;-0.10;99.90;;;;;;5090671;28;20031;-74
2021/03/18 06:33:25;;;;;;;31.60;16.03;;;-0.10;99.90;;;;;;5091463;28;20414;-74
2021/03/18 06:35:50;;;;;;;29.47;17.07;;;0.00;99.90;;;;;;5090478;28;20330;-75
2021/03/18 06:38:16;;;;;;;31.43;17.17;;;0.00;99.90;;;;;;5090588;28;20024;-77
2021/03/18 06:40:44;;;;;;;28.70;17.30;;;0.00;99.90;;;;;;5091026;28;20077;-75
2021/03/18 06:43:11;;;;;;;28.60;16.97;;;0.10;99.90;;;;;;5092440;28;20020;-76
2021/03/18 06:45:39;;;;;;;31.93;16.93;;;0.10;99.90;;;;;;5073664;28;20017;-75
2021/03/18 06:48:08;;;;;;;29.80;16.90;;;0.10;99.90;;;;;;5072396;28;20437;-78
2021/03/18 06:50:48;;;;;;;33.87;18.53;;;0.10;99.90;;;;;;5059712;28;20095;-78
2021/03/18 06:53:30;;;;;;;30.00;16.33;;;0.20;99.90;;;;;;5091235;28;20031;-75
2021/03/18 06:55:57;;;;;;;27.20;16.80;;;0.20;99.90;;;;;;5066032;28;20039;-75
2021/03/18 06:58:25;;;;;;;33.93;19.23;;;0.20;99.90;;;;;;5080401;28;20458;-74
2021/03/18 07:01:04;;;;;;;28.53;16.63;;;0.30;99.90;;;;;;5084541;28;20028;-74
2021/03/18 07:03:38;;;;;;;53.47;29.03;;;0.30;99.90;;;;;;5090469;28;20020;-74
2021/03/18 07:06:07;;;;;;;34.10;19.23;;;0.30;99.90;;;;;;5090285;28;20626;-74
2021/03/18 07:08:40;;;;;;;37.90;20.27;;;0.50;99.90;;;;;;5090137;28;20103;-75
2021/03/18 07:11:19;;;;;;;30.17;18.50;;;0.50;99.90;;;;;;5082503;28;20127;-74
2021/03/18 07:13:45;;;;;;;33.83;19.30;;;0.60;99.90;;;;;;5089608;28;20024;-75
2021/03/18 07:16:12;;;;;;;30.97;19.30;;;0.60;99.90;;;;;;5071034;28;20045;-75
2021/03/18 07:18:39;;;;;;;30.23;18.57;;;0.70;99.90;;;;;;5071495;28;20020;-75
2021/03/18 07:21:13;;;;;;;29.63;18.57;;;0.80;99.90;;;;;;5090161;28;20357;-75
2021/03/18 07:23:44;;;;;;;31.00;18.57;;;0.80;99.90;;;;;;5071710;28;20028;-75
2021/03/18 07:26:12;;;;;;;33.23;18.73;;;0.80;99.90;;;;;;5071723;28;20258;-75
2021/03/18 07:28:37;;;;;;;26.90;18.23;;;0.90;99.90;;;;;;5090197;28;20040;-75
2021/03/18 07:31:04;;;;;;;32.13;18.33;;;1.00;99.90;;;;;;5070896;28;20357;-76
2021/03/18 07:33:32;;;;;;;29.17;18.73;;;1.00;99.90;;;;;;5089491;28;20102;-75
2021/03/18 07:35:57;;;;;;;25.90;16.80;;;1.10;99.90;;;;;;5071149;28;20384;-75
2021/03/18 07:38:23;;;;;;;29.37;17.23;;;1.20;99.90;;;;;;5081946;28;20028;-75
2021/03/18 07:40:48;;;;;;;29.73;18.20;;;1.20;99.90;;;;;;5089040;28;20077;-75
2021/03/18 07:43:15;;;;;;;27.33;17.80;;;1.20;99.90;;;;;;5096333;28;20035;-76
2021/03/18 07:45:42;;;;;;;29.73;18.10;;;1.40;99.90;;;;;;5078477;28;20454;-76
2021/03/18 07:48:10;;;;;;;30.53;19.17;;;1.50;99.90;;;;;;5096158;28;20063;-74
2021/03/18 07:50:39;;;;;;;29.23;18.07;;;1.40;99.90;;;;;;5083092;28;20419;-76
2021/03/18 07:53:09;;;;;;;28.30;18.87;;;1.40;99.90;;;;;;5088355;28;20208;-76
2021/03/18 07:55:36;;;;;;;28.70;18.10;;;1.40;99.90;;;;;;5094033;28;20394;-76
2021/03/18 07:58:02;;;;;;;27.53;17.90;;;1.40;99.90;;;;;;5076309;28;20032;-75
2021/03/18 08:00:31;;;;;;;29.87;18.30;;;1.40;99.90;;;;;;5088787;28;20024;-75
2021/03/18 08:03:29;;;;;;;29.03;17.97;;;1.50;99.90;;;;;;5074561;28;20031;-76
2021/03/18 08:05:57;;;;;;;30.37;16.53;;;1.50;99.90;;;;;;5039334;28;20048;-76
2021/03/18 08:08:31;;;;;;;32.53;18.53;;;1.40;99.90;;;;;;5096090;28;20024;-76
2021/03/18 08:11:09;;;;;;;25.23;16.63;;;1.40;99.90;;;;;;5096036;28;20028;-76
2021/03/18 08:13:36;;;;;;;26.83;17.83;;;1.60;99.90;;;;;;5096365;28;20775;-76
2021/03/18 08:16:05;;;;;;;27.87;17.07;;;1.70;99.90;;;;;;5077994;28;20028;-76
2021/03/18 08:18:33;;;;;;;25.73;17.47;;;1.70;99.90;;;;;;5096281;28;20406;-76
2021/03/18 08:21:01;;;;;;;28.00;17.30;;;1.80;99.90;;;;;;5074788;28;20103;-76
2021/03/18 08:23:27;;;;;;;29.03;16.70;;;1.80;99.90;;;;;;5077796;28;20107;-76
2021/03/18 08:25:55;;;;;;;24.30;16.37;;;1.80;99.90;;;;;;5096080;28;20433;-76
2021/03/18 08:28:39;;;;;;;28.27;17.00;;;2.00;99.90;;;;;;5096489;28;20024;-76
2021/03/18 08:31:07;;;;;;;26.70;16.67;;;2.20;99.90;;;;;;5088611;28;20036;-76
2021/03/18 08:33:35;;;;;;;30.07;18.07;;;2.40;99.90;;;;;;5089776;28;20031;-77
2021/03/18 08:36:24;;;;;;;25.23;16.53;;;2.50;99.90;;;;;;5095819;28;20754;-76
2021/03/18 08:38:55;;;;;;;25.77;15.90;;;2.60;99.90;;;;;;5077719;28;20376;-76
2021/03/18 08:41:53;;;;;;;26.40;17.60;;;2.70;99.90;;;;;;5079111;28;20070;-78
2021/03/18 08:44:20;;;;;;;31.43;19.67;;;2.70;99.90;;;;;;5040565;28;20044;-77
2021/03/18 08:46:58;;;;;;;27.03;16.70;;;2.70;99.90;;;;;;5091465;28;20115;-77
2021/03/18 08:49:36;;;;;;;25.13;15.57;;;2.70;99.90;;;;;;5088773;28;20054;-77
2021/03/18 08:52:31;;;;;;;25.67;16.30;;;2.70;99.90;;;;;;5080803;28;20024;-78
2021/03/18 08:54:57;;;;;;;28.73;17.38;;;2.60;99.90;;;;;;5053201;28;20488;-77
2021/03/18 08:57:27;;;;;;;28.00;18.13;;;2.70;99.90;;;;;;5091957;28;20035;-77
2021/03/18 08:59:56;;;;;;;27.63;17.40;;;2.80;99.90;;;;;;5092504;28;20031;-77
2021/03/18 09:02:29;;;;;;;30.13;18.27;;;2.80;99.90;;;;;;5092297;28;20027;-77
2021/03/18 09:04:56;;;;;;;30.40;18.70;;;2.60;99.90;;;;;;5080681;28;20103;-77
2021/03/18 09:07:27;;;;;;;27.20;17.97;;;2.60;99.90;;;;;;5090027;28;20024;-77
2021/03/18 09:10:21;;;;;;;31.63;22.60;;;2.60;99.90;;;;;;5092122;28;20445;-77
2021/03/18 09:12:53;;;;;;;29.03;18.93;;;2.50;99.90;;;;;;5063037;28;20028;-77
2021/03/18 09:15:37;;;;;;;28.77;19.97;;;2.50;99.90;;;;;;5092085;28;20443;-77
2021/03/18 09:18:23;;;;;;;32.77;20.57;;;2.40;99.90;;;;;;5079782;28;20157;-77
2021/03/18 09:20:59;;;;;;;33.20;19.47;;;2.40;99.90;;;;;;5088401;28;20024;-77
2021/03/18 09:23:30;;;;;;;31.37;19.07;;;2.30;99.90;;;;;;5073773;28;20103;-76
2021/03/18 09:25:58;;;;;;;26.70;18.03;;;2.30;99.90;;;;;;5091828;28;20109;-76
2021/03/18 09:28:24;;;;;;;26.47;17.80;;;2.40;99.90;;;;;;5073682;28;20032;-76
2021/03/18 09:30:54;;;;;;;24.23;16.73;;;2.50;99.90;;;;;;5073548;28;20036;-76
2021/03/18 09:33:29;;;;;;;21.43;14.40;;;2.50;99.90;;;;;;5091748;28;20024;-76
2021/03/18 09:35:56;;;;;;;21.47;14.60;;;2.70;99.90;;;;;;5091617;28;20126;-76
2021/03/18 09:38:31;;;;;;;23.43;14.27;;;3.00;99.90;;;;;;5073710;28;20032;-76
2021/03/18 09:40:59;;;;;;;23.58;14.82;;;3.20;99.90;;;;;;5088963;28;20028;-77
2021/03/18 09:43:26;;;;;;;23.77;14.63;;;3.30;99.90;;;;;;5091582;28;20540;-77
2021/03/18 09:45:54;;;;;;;21.83;14.10;;;3.50;99.90;;;;;;5090863;28;20105;-76
2021/03/18 09:48:33;;;;;;;22.40;13.97;;;3.70;99.90;;;;;;5091252;28;20056;-77
2021/03/18 09:51:17;;;;;;;23.30;13.53;;;3.60;99.90;;;;;;5081309;28;20032;-77
2021/03/18 09:53:46;;;;;;;25.13;14.57;;;3.60;99.90;;;;;;5091458;28;20362;-77
2021/03/18 09:56:14;;;;;;;26.50;15.30;;;3.60;99.90;;;;;;5090487;28;20150;-77
2021/03/18 09:58:41;;;;;;;21.97;13.33;;;3.80;99.90;;;;;;5091305;28;20028;-77
2021/03/18 10:01:14;;;;;;;19.27;13.53;;;3.80;99.90;;;;;;5074065;28;20474;-74
2021/03/18 10:04:07;;;;;;;19.33;12.27;;;4.00;99.90;;;;;;5094307;22;20056;-74
2021/03/18 10:06:51;;;;;;;18.40;12.00;;;4.10;99.90;;;;;;5081325;28;20067;-75
2021/03/18 10:09:23;;;;;;;14.03;10.20;;;4.40;99.90;;;;;;5090910;28;20047;-76
2021/03/18 10:11:55;;;;;;;17.43;10.63;;;4.40;99.90;;;;;;5091647;28;20423;-75
2021/03/18 10:14:22;;;;;;;14.20;9.60;;;4.40;99.90;;;;;;5073020;28;20033;-75
2021/03/18 10:16:50;;;;;;;17.57;11.80;;;4.40;99.90;;;;;;5091473;28;20028;-75
2021/03/18 10:19:17;;;;;;;14.63;9.63;;;4.30;99.90;;;;;;5087079;28;20020;-75
2021/03/18 10:21:45;;;;;;;15.43;9.40;;;4.30;99.90;;;;;;5073024;28;20016;-75
2021/03/18 10:24:13;;;;;;;16.73;10.53;;;4.20;99.90;;;;;;5091263;28;20027;-75
2021/03/18 10:26:40;;;;;;;10.30;8.27;;;4.30;99.90;;;;;;5073186;28;20150;-75
2021/03/18 10:29:07;;;;;;;15.23;9.30;;;4.50;99.90;;;;;;5090795;28;20070;-75
2021/03/18 10:31:34;;;;;;;13.93;9.20;;;4.60;99.90;;;;;;5088929;28;20094;-75
2021/03/18 10:33:59;;;;;;;15.17;10.40;;;4.70;99.90;;;;;;5090952;28;20032;-75
2021/03/18 10:36:52;;;;;;;16.10;10.93;;;4.80;99.90;;;;;;5072516;28;20085;-75
2021/03/18 10:39:21;;;;;;;18.00;11.73;;;5.00;99.90;;;;;;5087154;28;20034;-75
2021/03/18 10:41:52;;;;;;;17.40;11.50;;;4.90;99.90;;;;;;5091358;28;20021;-74
2021/03/18 10:44:20;;;;;;;15.27;11.17;;;4.70;99.90;;;;;;5091646;28;20460;-74
2021/03/18 10:46:46;;;;;;;19.07;12.27;;;4.80;99.90;;;;;;5073360;28;20036;-75
2021/03/18 10:49:15;;;;;;;20.93;13.70;;;4.60;99.90;;;;;;5067215;28;20029;-75
2021/03/18 10:51:51;;;;;;;25.43;14.87;;;4.60;99.90;;;;;;5086491;28;20123;-74
2021/03/18 10:54:21;;;;;;;26.60;13.70;;;4.50;99.90;;;;;;5064646;28;20028;-75
2021/03/18 10:56:49;;;;;;;20.77;13.90;;;4.50;99.90;;;;;;5072682;28;20118;-74
2021/03/18 10:59:19;;;;;;;20.20;13.23;;;4.60;99.90;;;;;;5091261;28;20028;-74
2021/03/18 11:01:46;;;;;;;20.77;13.17;;;4.70;99.90;;;;;;5082962;28;20431;-74
2021/03/18 11:04:12;;;;;;;21.60;13.17;;;5.10;99.90;;;;;;5073230;28;20044;-74
2021/03/18 11:06:51;;;;;;;21.67;13.07;;;5.10;99.90;;;;;;5083081;28;20501;-74
2021/03/18 11:09:17;;;;;;;21.07;12.97;;;5.50;99.90;;;;;;5087109;28;20023;-75
2021/03/18 11:12:00;;;;;;;16.17;10.90;;;5.70;99.90;;;;;;5087115;28;20033;-75
2021/03/18 11:14:27;;;;;;;16.43;10.70;;;6.00;99.90;;;;;;5076244;28;20027;-75
2021/03/18 11:17:04;;;;;;;18.17;10.73;;;6.20;99.90;;;;;;5090503;28;20109;-75
2021/03/18 11:19:29;;;;;;;13.93;9.60;;;6.30;99.90;;;;;;5072187;28;20016;-75
2021/03/18 11:22:01;;;;;;;15.17;10.20;;;6.20;99.90;;;;;;5090383;28;20127;-75
2021/03/18 11:24:28;;;;;;;14.80;9.83;;;6.20;99.90;;;;;;5090349;28;20469;-75
2021/03/18 11:26:53;;;;;;;12.37;8.43;;;6.00;99.90;;;;;;5090081;28;20024;-75
2021/03/18 11:29:21;;;;;;;13.93;8.40;;;5.80;99.90;;;;;;5090199;28;20089;-76
2021/03/18 11:31:53;;;;;;;11.77;8.40;;;5.30;99.90;;;;;;5090192;28;20469;-75
2021/03/18 11:34:24;;;;;;;13.20;9.60;;;5.00;99.90;;;;;;5090276;28;20422;-75
2021/03/18 11:36:54;;;;;;;13.50;9.13;;;4.70;99.90;;;;;;5090270;28;20488;-76
2021/03/18 11:39:21;;;;;;;13.63;8.60;;;4.60;99.90;;;;;;5089860;28;20028;-76
2021/03/18 11:41:48;;;;;;;13.67;8.90;;;4.50;99.90;;;;;;5089857;28;20415;-76
2021/03/18 11:44:14;;;;;;;13.00;8.70;;;4.50;99.90;;;;;;5090241;28;20027;-76
2021/03/18 11:46:41;;;;;;;11.40;7.13;;;4.40;99.90;;;;;;5071345;28;20028;-75
2021/03/18 11:49:06;;;;;;;12.30;6.80;;;4.40;99.90;;;;;;5085775;28;20032;-75
2021/03/18 11:51:32;;;;;;;9.40;6.03;;;4.40;99.90;;;;;;5083733;28;20036;-75
2021/03/18 11:53:58;;;;;;;11.03;6.17;;;4.40;99.90;;;;;;5076110;28;20036;-75
2021/03/18 11:56:24;;;;;;;7.20;5.03;;;4.70;99.90;;;;;;5089911;28;20035;-76
2021/03/18 11:58:50;;;;;;;7.73;5.00;;;5.00;99.90;;;;;;5090042;28;20476;-75
2021/03/18 12:01:16;;;;;;;6.80;5.10;;;5.40;99.90;;;;;;5088533;28;20056;-75
2021/03/18 12:03:42;;;;;;;8.03;5.33;;;5.90;99.90;;;;;;5089682;28;20082;-75
2021/03/18 12:06:08;;;;;;;6.63;5.03;;;6.00;99.90;;;;;;5085978;28;20032;-75
2021/03/18 12:08:34;;;;;;;6.50;4.43;;;6.30;99.90;;;;;;5089610;28;20062;-75
2021/03/18 12:11:00;;;;;;;6.27;4.63;;;6.50;99.90;;;;;;5071427;28;20353;-75
2021/03/18 12:13:26;;;;;;;6.20;4.07;;;6.90;90.90;;;;;;5071768;28;20036;-75
2021/03/18 12:15:51;;;;;;;8.40;5.43;;;7.30;92.00;;;;;;5089685;28;20057;-75
2021/03/18 12:18:18;;;;;;;8.13;5.43;;;7.50;90.80;;;;;;5070561;28;20024;-76
2021/03/18 12:20:44;;;;;;;10.13;6.10;;;7.70;90.80;;;;;;5076139;28;20073;-76
2021/03/18 12:23:10;;;;;;;8.10;6.07;;;7.20;91.80;;;;;;5089063;28;20032;-76
2021/03/18 12:25:36;;;;;;;11.23;6.43;;;7.00;91.80;;;;;;5089652;28;20035;-76
2021/03/18 12:28:02;;;;;;;9.13;6.40;;;6.50;96.40;;;;;;5092081;28;20032;-76
2021/03/18 12:30:27;;;;;;;11.03;7.07;;;6.30;97.00;;;;;;5092982;28;20396;-76
2021/03/18 12:32:53;;;;;;;14.47;6.80;;;6.20;97.30;;;;;;5093286;28;20032;-76
2021/03/18 12:35:21;;;;;;;12.77;7.00;;;5.70;99.80;;;;;;5093147;28;20154;-76
2021/03/18 12:37:50;;;;;;;15.03;6.93;;;5.30;99.90;;;;;;5094228;28;20086;-75
2021/03/18 12:40:16;;;;;;;9.50;6.20;;;5.30;99.90;;;;;;5093562;28;20032;-75
2021/03/18 12:42:42;;;;;;;9.57;6.57;;;5.30;99.90;;;;;;5075635;28;20119;-75
2021/03/18 12:45:11;;;;;;;9.87;6.27;;;5.50;99.90;;;;;;5093092;28;20108;-75
2021/03/18 12:47:37;;;;;;;10.87;6.90;;;5.90;99.90;;;;;;5083797;28;20028;-75
2021/03/18 12:50:09;;;;;;;11.57;6.07;;;6.20;99.90;;;;;;5064850;28;20139;-75